Observation data for Saint Lawrence on 05/27/2019      Previous  Date  Next       Current Mesonet Observations  Soil Data  Daily Summary Page  Observations in Plain Language
KST1 270500Z 17015KT 23/18 A2989 RMK A01 T02280180  RH  077%=      5-min Rain = 0
KST1 270505Z 17014KT 23/18 A2989 RMK A01 T02270180  RH  077%=      5-min Rain = 0
KST1 270510Z 17015KT 23/18 A2988 RMK A01 T02270180  RH  077%=      5-min Rain = 0
KST1 270515Z 17015G20KT 23/18 A2988 RMK A01 T02280180  RH  076%=      5-min Rain = 0
KST1 270520Z 17015KT 23/18 A2988 RMK A01 T02280180  RH  076%=      5-min Rain = 0
KST1 270525Z 17014KT 23/18 A2989 RMK A01 T02280180  RH  076%=      5-min Rain = 0
KST1 270530Z 17013KT 23/18 A2989 RMK A01 T02260180  RH  077%=      5-min Rain = 0
KST1 270535Z 16013KT 23/18 A2989 RMK A01 T02250180  RH  077%=      5-min Rain = 0
KST1 270540Z 16014KT 23/18 A2989 RMK A01 T02260180  RH  077%=      5-min Rain = 0
KST1 270545Z 16013KT 23/18 A2989 RMK A01 T02250180  RH  078%=      5-min Rain = 0
KST1 270550Z 16013KT 22/18 A2988 RMK A01 T02240180  RH  078%=      5-min Rain = 0
KST1 270555Z 16013KT 22/18 A2988 RMK A01 T02230180  RH  078%=      5-min Rain = 0
KST1 270600Z 16014KT 22/18 A2988 RMK A01 T02240180  RH  078%=      5-min Rain = 0
KST1 270605Z 16013KT 22/18 A2988 RMK A01 T02230179  RH  078%=      5-min Rain = 0
KST1 270610Z 16013KT 22/18 A2988 RMK A01 T02220180  RH  079%=      5-min Rain = 0
KST1 270615Z 16014KT 22/18 A2988 RMK A01 T02220180  RH  079%=      5-min Rain = 0
KST1 270620Z 16014KT 22/18 A2988 RMK A01 T02220180  RH  079%=      5-min Rain = 0
KST1 270625Z 16014KT 22/18 A2988 RMK A01 T02220180  RH  079%=      5-min Rain = 0
KST1 270630Z 16016G21KT 22/18 A2987 RMK A01 T02230180  RH  078%=      5-min Rain = 0
KST1 270635Z 16017G24KT 22/18 A2987 RMK A01 T02240180  RH  078%=      5-min Rain = 0
KST1 270640Z 16016G21KT 22/18 A2987 RMK A01 T02240180  RH  078%=      5-min Rain = 0
KST1 270645Z 16015G20KT 22/18 A2987 RMK A01 T02220180  RH  079%=      5-min Rain = 0
KST1 270650Z 16018G23KT 22/18 A2987 RMK A01 T02230181  RH  079%=      5-min Rain = 0
KST1 270655Z 16017KT 22/18 A2987 RMK A01 T02230181  RH  079%=      5-min Rain = 0
KST1 270700Z 16015KT 22/18 A2987 RMK A01 T02210182  RH  081%=      5-min Rain = 0
KST1 270705Z 17015KT 22/18 A2987 RMK A01 T02210183  RH  081%=      5-min Rain = 0
KST1 270710Z 17016KT 22/18 A2987 RMK A01 T02200184  RH  082%=      5-min Rain = 0
KST1 270715Z 16016KT 22/19 A2987 RMK A01 T02200185  RH  083%=      5-min Rain = 0
KST1 270720Z 16017G22KT 22/19 A2987 RMK A01 T02210186  RH  083%=      5-min Rain = 0
KST1 270725Z 17016G22KT 22/19 A2987 RMK A01 T02210187  RH  084%=      5-min Rain = 0
KST1 270730Z 17017G23KT 22/19 A2987 RMK A01 T02210188  RH  084%=      5-min Rain = 0
KST1 270735Z 17018G24KT 22/19 A2986 RMK A01 T02220189  RH  084%=      5-min Rain = 0
KST1 270740Z 17017G22KT 22/19 A2986 RMK A01 T02210190  RH  085%=      5-min Rain = 0
KST1 270745Z 17019G25KT 22/19 A2986 RMK A01 T02220191  RH  085%=      5-min Rain = 0
KST1 270750Z 17019G26KT 22/19 A2986 RMK A01 T02220191  RH  085%=      5-min Rain = 0
KST1 270755Z 17020G26KT 22/19 A2986 RMK A01 T02220192  RH  085%=      5-min Rain = 0
KST1 270800Z 17020G26KT 22/19 A2986 RMK A01 T02220192  RH  085%=      5-min Rain = 0
KST1 270805Z 17019G25KT 22/19 A2986 RMK A01 T02220192  RH  086%=      5-min Rain = 0
KST1 270810Z 17018G25KT 22/19 A2986 RMK A01 T02200193  RH  087%=      5-min Rain = 0
KST1 270815Z 17019G24KT 22/19 A2986 RMK A01 T02200193  RH  087%=      5-min Rain = 0
KST1 270820Z 17022G28KT 22/19 A2986 RMK A01 T02210193  RH  087%=      5-min Rain = 0
KST1 270825Z 17023G28KT 22/19 A2986 RMK A01 T02200193  RH  087%=      5-min Rain = 0
KST1 270830Z 17022G27KT 22/19 A2985 RMK A01 T02200193  RH  087%=      5-min Rain = 0
KST1 270835Z 17020G26KT 22/19 A2986 RMK A01 T02190193  RH  088%=      5-min Rain = 0
KST1 270840Z 18017G22KT 22/19 A2986 RMK A01 T02170193  RH  088%=      5-min Rain = 0
KST1 270845Z 19017KT 22/19 A2987 RMK A01 T02180193  RH  088%=      5-min Rain = 0
KST1 270850Z 19015G21KT 22/19 A2987 RMK A01 T02180193  RH  088%=      5-min Rain = 0
KST1 270855Z 21014KT 22/19 A2989 RMK A01 T02180194  RH  089%=      5-min Rain = 0
KST1 270900Z 22013G18KT 22/19 A299 RMK A01 T02170194  RH  089%=      5-min Rain = 0
KST1 270905Z 21012G17KT 22/19 A2989 RMK A01 T02180194  RH  089%=      5-min Rain = 0
KST1 270910Z 22014G19KT 22/19 A299 RMK A01 T02180194  RH  089%=      5-min Rain = 0
KST1 270915Z 21015KT 22/19 A299 RMK A01 T02190194  RH  088%=      5-min Rain = 0
KST1 270920Z 21014KT 22/19 A2989 RMK A01 T02190194  RH  088%=      5-min Rain = 0
KST1 270925Z 20014G19KT 22/19 A2989 RMK A01 T02200194  RH  087%=      5-min Rain = 0
KST1 270930Z 21015G21KT 22/19 A299 RMK A01 T02200194  RH  087%=      5-min Rain = 0
KST1 270935Z 20015G20KT 22/19 A2989 RMK A01 T02210193  RH  087%=      5-min Rain = 0
KST1 270940Z 20015G21KT 22/19 A299 RMK A01 T02200193  RH  087%=      5-min Rain = 0
KST1 270945Z 20014KT 22/19 A299 RMK A01 T02200192  RH  086%=      5-min Rain = 0
KST1 270950Z 20014G22KT 22/19 A299 RMK A01 T02200192  RH  086%=      5-min Rain = 0
KST1 270955Z 20013KT 22/19 A299 RMK A01 T02200193  RH  087%=      5-min Rain = 0
KST1 271000Z 20014G21KT 22/19 A299 RMK A01 T02200193  RH  087%=      5-min Rain = 0
KST1 271005Z 20014G19KT 22/19 A299 RMK A01 T02200192  RH  086%=      5-min Rain = 0
KST1 271010Z 20014G19KT 22/19 A299 RMK A01 T02200192  RH  086%=      5-min Rain = 0
KST1 271015Z 20015G20KT 22/19 A299 RMK A01 T02200192  RH  086%=      5-min Rain = 0
KST1 271020Z 20015G20KT 22/19 A299 RMK A01 T02190191  RH  086%=      5-min Rain = 0
KST1 271025Z 20014G19KT 22/19 A299 RMK A01 T02190191  RH  086%=      5-min Rain = 0
KST1 271030Z 20015G20KT 22/19 A299 RMK A01 T02180191  RH  087%=      5-min Rain = 0
KST1 271035Z 19015G20KT 22/19 A299 RMK A01 T02180191  RH  086%=      5-min Rain = 0
KST1 271040Z 19018G23KT 22/19 A299 RMK A01 T02180190  RH  087%=      5-min Rain = 0
KST1 271045Z 18020G25KT 22/19 A2989 RMK A01 T02170190  RH  087%=      5-min Rain = 0
KST1 271050Z 18020G27KT 22/19 A2989 RMK A01 T02150190  RH  088%=      5-min Rain = 0
KST1 271055Z 18021KT 22/19 A2989 RMK A01 T02150189  RH  088%=      5-min Rain = 0
KST1 271100Z 18020G25KT 21/19 A2989 RMK A01 T02140189  RH  088%=      5-min Rain = 0
KST1 271105Z 18021G27KT 21/19 A2989 RMK A01 T02130189  RH  088%=      5-min Rain = 0
KST1 271110Z 18023G28KT 21/19 A2989 RMK A01 T02130189  RH  088%=      5-min Rain = 0
KST1 271115Z 18022G29KT 21/19 A2989 RMK A01 T02120188  RH  089%=      5-min Rain = 0
KST1 271120Z 17022G28KT 21/19 A2989 RMK A01 T02110188  RH  089%=      5-min Rain = 0
KST1 271125Z 18021G27KT 21/19 A2989 RMK A01 T02110188  RH  089%=      5-min Rain = 0
KST1 271130Z 18019KT 21/19 A2989 RMK A01 T02100188  RH  089%=      5-min Rain = 0
KST1 271135Z 17019G24KT 21/19 A2989 RMK A01 T02100188  RH  090%=      5-min Rain = 0
KST1 271140Z 17020G25KT 21/19 A2989 RMK A01 T02090188  RH  090%=      5-min Rain = 0
KST1 271145Z 17019G24KT 21/19 A2989 RMK A01 T02090187  RH  090%=      5-min Rain = 0
KST1 271150Z 17019G24KT 21/19 A299 RMK A01 T02090187  RH  090%=      5-min Rain = 0
KST1 271155Z 17018G24KT 21/19 A299 RMK A01 T02100187  RH  089%=      5-min Rain = 0
KST1 271200Z 17019KT 21/19 A299 RMK A01 T02100187  RH  089%=      5-min Rain = 0
KST1 271205Z 18018G23KT 21/19 A299 RMK A01 T02100187  RH  089%=      5-min Rain = 0
KST1 271210Z 18017G22KT 21/19 A299 RMK A01 T02100187  RH  089%=      5-min Rain = 0
KST1 271215Z 18017KT 21/19 A299 RMK A01 T02100187  RH  089%=      5-min Rain = 0
KST1 271220Z 18018KT 21/19 A299 RMK A01 T02090187  RH  089%=      5-min Rain = 0
KST1 271225Z 18019G24KT 21/19 A299 RMK A01 T02090186  RH  089%=      5-min Rain = 0
KST1 271230Z 18020G26KT 21/19 A2991 RMK A01 T02090186  RH  089%=      5-min Rain = 0
KST1 271235Z 18020G26KT 21/19 A2991 RMK A01 T02090186  RH  089%=      5-min Rain = 0
KST1 271240Z 18020G26KT 21/19 A2991 RMK A01 T02090185  RH  089%=      5-min Rain = 0
KST1 271245Z 18019G25KT 21/19 A2991 RMK A01 T02090186  RH  089%=      5-min Rain = 0
KST1 271250Z 18019G24KT 21/19 A2991 RMK A01 T02090186  RH  089%=      5-min Rain = 0
KST1 271255Z 18018KT 21/19 A2991 RMK A01 T02090186  RH  089%=      5-min Rain = 0
KST1 271300Z 18017G22KT 21/19 A2991 RMK A01 T02090186  RH  089%=      5-min Rain = 0
KST1 271305Z 18015KT 21/19 A2991 RMK A01 T02100187  RH  089%=      5-min Rain = 0
KST1 271310Z 18016KT 21/19 A2992 RMK A01 T02090187  RH  089%=      5-min Rain = 0
KST1 271315Z 18013KT 21/19 A2992 RMK A01 T02100188  RH  090%=      5-min Rain = 0
KST1 271320Z 17014G20KT 21/19 A2992 RMK A01 T02100189  RH  090%=      5-min Rain = 0
KST1 271325Z 17017KT 21/19 A2992 RMK A01 T02110188  RH  089%=      5-min Rain = 0
KST1 271330Z 18019G24KT 21/19 A2992 RMK A01 T02100188  RH  089%=      5-min Rain = 0
KST1 271335Z 17018KT 21/19 A2992 RMK A01 T02110188  RH  089%=      5-min Rain = 0
KST1 271340Z 17016G22KT 21/19 A2992 RMK A01 T02110188  RH  089%=      5-min Rain = 0
KST1 271345Z 17018G23KT 21/19 A2992 RMK A01 T02110188  RH  089%=      5-min Rain = 0
KST1 271350Z 17018G23KT 21/19 A2992 RMK A01 T02120188  RH  089%=      5-min Rain = 0
KST1 271355Z 17016G22KT 21/19 A2992 RMK A01 T02120189  RH  089%=      5-min Rain = 0
KST1 271400Z 17019G24KT 21/19 A2992 RMK A01 T02120188  RH  088%=      5-min Rain = 0
KST1 271405Z 18017G22KT 21/19 A2992 RMK A01 T02130189  RH  088%=      5-min Rain = 0
KST1 271410Z 18018KT 21/19 A2992 RMK A01 T02140189  RH  088%=      5-min Rain = 0
KST1 271415Z 17016KT 22/19 A2991 RMK A01 T02150189  RH  088%=      5-min Rain = 0
KST1 271420Z 17017G22KT 22/19 A2991 RMK A01 T02160190  RH  087%=      5-min Rain = 0
KST1 271425Z 18017KT 22/19 A2991 RMK A01 T02160189  RH  087%=      5-min Rain = 0
KST1 271430Z 18018G24KT 22/19 A2992 RMK A01 T02160189  RH  087%=      5-min Rain = 0
KST1 271435Z 18017KT 22/19 A2992 RMK A01 T02160189  RH  087%=      5-min Rain = 0
KST1 271440Z 17017G22KT 22/19 A2992 RMK A01 T02170189  RH  086%=      5-min Rain = 0
KST1 271445Z 18018KT 22/19 A2992 RMK A01 T02180189  RH  086%=      5-min Rain = 0
KST1 271450Z 17017G23KT 22/19 A2992 RMK A01 T02200190  RH  085%=      5-min Rain = 0
KST1 271455Z 18018KT 22/19 A2992 RMK A01 T02200189  RH  085%=      5-min Rain = 0
KST1 271500Z 18017KT 22/19 A2992 RMK A01 T02220190  RH  084%=      5-min Rain = 0
KST1 271505Z 18017KT 23/19 A2992 RMK A01 T02250191  RH  083%=      5-min Rain = 0
KST1 271510Z 18017KT 23/19 A2991 RMK A01 T02290191  RH  081%=      5-min Rain = 0
KST1 271515Z 18015G20KT 23/19 A2991 RMK A01 T02260189  RH  082%=      5-min Rain = 0
KST1 271520Z 17013KT 23/19 A2992 RMK A01 T02280191  RH  082%=      5-min Rain = 0
KST1 271525Z 17015KT 23/19 A2992 RMK A01 T02300191  RH  081%=      5-min Rain = 0
KST1 271530Z 18015G21KT 23/19 A2992 RMK A01 T02320191  RH  080%=      5-min Rain = 0
KST1 271535Z 18016KT 24/19 A2992 RMK A01 T02350191  RH  078%=      5-min Rain = 0
KST1 271540Z 18016G21KT 24/19 A2992 RMK A01 T02390191  RH  077%=      5-min Rain = 0
KST1 271545Z 18016KT 24/19 A2992 RMK A01 T02420192  RH  076%=      5-min Rain = 0
KST1 271550Z 18015G20KT 24/19 A2992 RMK A01 T02430192  RH  075%=      5-min Rain = 0
KST1 271555Z 17015KT 24/19 A2991 RMK A01 T02440191  RH  074%=      5-min Rain = 0
KST1 271600Z 17016KT 25/19 A2991 RMK A01 T02460190  RH  073%=      5-min Rain = 0
KST1 271605Z 17016KT 25/19 A2991 RMK A01 T02470190  RH  072%=      5-min Rain = 0
KST1 271610Z 18017KT 25/19 A2991 RMK A01 T02470189  RH  072%=      5-min Rain = 0
KST1 271615Z 17016KT 25/19 A2991 RMK A01 T02470188  RH  072%=      5-min Rain = 0
KST1 271620Z 18015KT 25/19 A2991 RMK A01 T02510190  RH  071%=      5-min Rain = 0
KST1 271625Z 18014KT 25/19 A2991 RMK A01 T02520190  RH  070%=      5-min Rain = 0
KST1 271630Z 17015KT 25/19 A2991 RMK A01 T02530189  RH  069%=      5-min Rain = 0
KST1 271635Z 19015G20KT 25/19 A299 RMK A01 T02540189  RH  069%=      5-min Rain = 0
KST1 271640Z 18016KT 26/19 A299 RMK A01 T02550188  RH  068%=      5-min Rain = 0
KST1 271645Z 17016KT 26/19 A299 RMK A01 T02580189  RH  067%=      5-min Rain = 0
KST1 271650Z 18016KT 26/19 A299 RMK A01 T02610190  RH  066%=      5-min Rain = 0
KST1 271655Z 18016G22KT 26/19 A299 RMK A01 T02630188  RH  065%=      5-min Rain = 0
KST1 271700Z 18015KT 26/19 A299 RMK A01 T02630189  RH  066%=      5-min Rain = 0
KST1 271705Z 18016G21KT 27/19 A299 RMK A01 T02650188  RH  064%=      5-min Rain = 0
KST1 271710Z 18015KT 27/19 A299 RMK A01 T02670189  RH  064%=      5-min Rain = 0
KST1 271715Z 17015G21KT 27/19 A299 RMK A01 T02670189  RH  064%=      5-min Rain = 0
KST1 271720Z 18014G19KT 27/19 A2989 RMK A01 T02710189  RH  063%=      5-min Rain = 0
KST1 271725Z 18014G20KT 27/19 A2989 RMK A01 T02720188  RH  062%=      5-min Rain = 0
KST1 271730Z 18014G19KT 27/19 A2989 RMK A01 T02730189  RH  061%=      5-min Rain = 0
KST1 271735Z 19013G18KT 27/19 A2989 RMK A01 T02740188  RH  061%=      5-min Rain = 0
KST1 271740Z 18013KT 27/19 A2989 RMK A01 T02720187  RH  061%=      5-min Rain = 0
KST1 271745Z 18015KT 27/19 A2989 RMK A01 T02730188  RH  061%=      5-min Rain = 0
KST1 271750Z 18014KT 28/19 A2989 RMK A01 T02750188  RH  060%=      5-min Rain = 0
KST1 271755Z 19012KT 28/19 A2989 RMK A01 T02800190  RH  060%=      5-min Rain = 0
KST1 271800Z 18012G17KT 28/19 A2988 RMK A01 T02810190  RH  059%=      5-min Rain = 0
KST1 271805Z 19013G18KT 29/19 A2988 RMK A01 T02850187  RH  057%=      5-min Rain = 0
KST1 271810Z 19011G17KT 29/19 A2988 RMK A01 T02880188  RH  056%=      5-min Rain = 0
KST1 271815Z 18014KT 29/19 A2988 RMK A01 T02860185  RH  056%=      5-min Rain = 0
KST1 271820Z 18012KT 28/19 A2988 RMK A01 T02830187  RH  057%=      5-min Rain = 0
KST1 271825Z 19012KT 29/19 A2988 RMK A01 T02850186  RH  056%=      5-min Rain = 0
KST1 271830Z 19011G16KT 29/19 A2988 RMK A01 T02870186  RH  056%=      5-min Rain = 0
KST1 271835Z 19011G17KT 29/19 A2987 RMK A01 T02890189  RH  056%=      5-min Rain = 0
KST1 271840Z 17011G16KT 29/19 A2987 RMK A01 T02940187  RH  054%=      5-min Rain = 0
KST1 271845Z 18012G17KT 30/19 A2987 RMK A01 T02960186  RH  053%=      5-min Rain = 0
KST1 271850Z 19012KT 30/18 A2986 RMK A01 T02960184  RH  052%=      5-min Rain = 0
KST1 271855Z 18013G19KT 30/18 A2986 RMK A01 T03000183  RH  051%=      5-min Rain = 0
KST1 271900Z 19011KT 30/18 A2986 RMK A01 T03000179  RH  049%=      5-min Rain = 0
KST1 271905Z 19011KT 30/18 A2986 RMK A01 T03010184  RH  051%=      5-min Rain = 0
KST1 271910Z 18012G18KT 30/19 A2985 RMK A01 T03020185  RH  051%=      5-min Rain = 0
KST1 271915Z 18012G19KT 30/18 A2985 RMK A01 T03010181  RH  050%=      5-min Rain = 0
KST1 271920Z 19013KT 30/17 A2985 RMK A01 T02990174  RH  048%=      5-min Rain = 0
KST1 271925Z 20012G17KT 30/18 A2985 RMK A01 T03030175  RH  047%=      5-min Rain = 0
KST1 271930Z 20011G16KT 31/18 A2984 RMK A01 T03050175  RH  047%=      5-min Rain = 0
KST1 271935Z 18010KT 31/18 A2984 RMK A01 T03120183  RH  047%=      5-min Rain = 0
KST1 271940Z 19012G17KT 31/18 A2984 RMK A01 T03100181  RH  047%=      5-min Rain = 0
KST1 271945Z 17011G16KT 32/18 A2983 RMK A01 T03150181  RH  046%=      5-min Rain = 0
KST1 271950Z 16013KT 31/18 A2983 RMK A01 T03130182  RH  047%=      5-min Rain = 0
KST1 271955Z 17013G19KT 31/18 A2983 RMK A01 T03140181  RH  046%=      5-min Rain = 0
KST1 272000Z 16013KT 32/18 A2982 RMK A01 T03150179  RH  045%=      5-min Rain = 0
KST1 272005Z 17014G19KT 32/18 A2982 RMK A01 T03160178  RH  045%=      5-min Rain = 0
KST1 272010Z 18012KT 32/18 A2982 RMK A01 T03160175  RH  044%=      5-min Rain = 0
KST1 272015Z 19012G20KT 32/18 A2982 RMK A01 T03150176  RH  044%=      5-min Rain = 0
KST1 272020Z 19012G18KT 32/17 A2981 RMK A01 T03160169  RH  042%=      5-min Rain = 0
KST1 272025Z 17013G19KT 32/18 A2981 RMK A01 T03150179  RH  045%=      5-min Rain = 0
KST1 272030Z 17014G21KT 32/18 A2981 RMK A01 T03160181  RH  046%=      5-min Rain = 0
KST1 272035Z 17015G20KT 32/18 A2981 RMK A01 T03160181  RH  046%=      5-min Rain = 0
KST1 272040Z 15012KT 32/18 A2981 RMK A01 T03170183  RH  046%=      5-min Rain = 0
KST1 272045Z 17014G20KT 32/18 A298 RMK A01 T03200183  RH  045%=      5-min Rain = 0
KST1 272050Z 17015KT 32/18 A298 RMK A01 T03160184  RH  047%=      5-min Rain = 0
KST1 272055Z 16015G21KT 32/19 A298 RMK A01 T03170187  RH  047%=      5-min Rain = 0
KST1 272100Z 17016G21KT 32/19 A298 RMK A01 T03190186  RH  047%=      5-min Rain = 0
KST1 272105Z 17012G18KT 31/19 A298 RMK A01 T03140185  RH  047%=      5-min Rain = 0
KST1 272110Z 16018KT 32/19 A2979 RMK A01 T03180187  RH  047%=      5-min Rain = 0
KST1 272115Z 15018G24KT 32/19 A2979 RMK A01 T03150189  RH  049%=      5-min Rain = 0
KST1 272120Z 16016G22KT 32/19 A2979 RMK A01 T03170189  RH  048%=      5-min Rain = 0
KST1 272125Z 15018G23KT 32/19 A2979 RMK A01 T03160189  RH  048%=      5-min Rain = 0
KST1 272130Z 15018G24KT 32/19 A2978 RMK A01 T03150188  RH  048%=      5-min Rain = 0
KST1 272135Z 16018G24KT 32/18 A2978 RMK A01 T03150184  RH  047%=      5-min Rain = 0
KST1 272140Z 15017KT 32/18 A2978 RMK A01 T03150183  RH  047%=      5-min Rain = 0
KST1 272145Z 15018KT 32/18 A2978 RMK A01 T03150183  RH  047%=      5-min Rain = 0
KST1 272150Z 15017G22KT 31/18 A2977 RMK A01 T03130179  RH  046%=      5-min Rain = 0
KST1 272155Z 14018G23KT 31/18 A2977 RMK A01 T03130183  RH  047%=      5-min Rain = 0
KST1 272200Z 15018G24KT 32/19 A2977 RMK A01 T03150188  RH  048%=      5-min Rain = 0
KST1 272205Z 15017G22KT 32/19 A2977 RMK A01 T03170188  RH  047%=      5-min Rain = 0
KST1 272210Z 16019KT 32/18 A2977 RMK A01 T03150182  RH  046%=      5-min Rain = 0
KST1 272215Z 15019G26KT 31/18 A2976 RMK A01 T03140182  RH  047%=      5-min Rain = 0
KST1 272220Z 15020G25KT 31/18 A2976 RMK A01 T03100181  RH  047%=      5-min Rain = 0
KST1 272225Z 14021G27KT 31/19 A2976 RMK A01 T03090188  RH  050%=      5-min Rain = 0
KST1 272230Z 15021G27KT 31/19 A2976 RMK A01 T03080186  RH  050%=      5-min Rain = 0
KST1 272235Z 14020KT 31/19 A2976 RMK A01 T03100188  RH  049%=      5-min Rain = 0
KST1 272240Z 15022G27KT 31/19 A2976 RMK A01 T03080186  RH  049%=      5-min Rain = 0
KST1 272245Z 15020G28KT 31/19 A2975 RMK A01 T03080186  RH  049%=      5-min Rain = 0
KST1 272250Z 15020G25KT 31/19 A2975 RMK A01 T03090188  RH  050%=      5-min Rain = 0
KST1 272255Z 14021KT 31/19 A2975 RMK A01 T03080186  RH  049%=      5-min Rain = 0
KST1 272300Z 15019G26KT 31/18 A2975 RMK A01 T03050182  RH  049%=      5-min Rain = 0
KST1 272305Z 15020KT 31/18 A2975 RMK A01 T03050184  RH  050%=      5-min Rain = 0
KST1 272310Z 15020KT 30/19 A2975 RMK A01 T03040186  RH  050%=      5-min Rain = 0
KST1 272315Z 16021G26KT 30/18 A2975 RMK A01 T03030181  RH  049%=      5-min Rain = 0
KST1 272320Z 15020G25KT 31/19 A2974 RMK A01 T03050185  RH  050%=      5-min Rain = 0
KST1 272325Z 15020G26KT 30/19 A2974 RMK A01 T03030189  RH  052%=      5-min Rain = 0
KST1 272330Z 14022KT 30/19 A2974 RMK A01 T03040185  RH  050%=      5-min Rain = 0
KST1 272335Z 15021KT 31/18 A2974 RMK A01 T03050183  RH  049%=      5-min Rain = 0
KST1 272340Z 15022G27KT 30/18 A2973 RMK A01 T03040184  RH  050%=      5-min Rain = 0
KST1 272345Z 15022G28KT 30/19 A2973 RMK A01 T03020185  RH  051%=      5-min Rain = 0
KST1 272350Z 15022KT 30/19 A2973 RMK A01 T03020186  RH  051%=      5-min Rain = 0
KST1 272355Z 16020G26KT 30/18 A2973 RMK A01 T03040180  RH  049%=      5-min Rain = 0
KST1 280000Z 15022G27KT 30/18 A2973 RMK A01 T03030183  RH  050%=      5-min Rain = 0
KST1 280005Z 15022G27KT 30/18 A2972 RMK A01 T03020180  RH  049%=      5-min Rain = 0
KST1 280010Z 15023KT 30/18 A2972 RMK A01 T03000182  RH  050%=      5-min Rain = 0
KST1 280015Z 15023G29KT 30/18 A2972 RMK A01 T02990183  RH  051%=      5-min Rain = 0
KST1 280020Z 15023G28KT 30/18 A2972 RMK A01 T02980182  RH  051%=      5-min Rain = 0
KST1 280025Z 15023KT 30/18 A2972 RMK A01 T02970183  RH  052%=      5-min Rain = 0
KST1 280030Z 15023KT 30/18 A2972 RMK A01 T02960182  RH  052%=      5-min Rain = 0
KST1 280035Z 15024KT 29/18 A2972 RMK A01 T02940184  RH  053%=      5-min Rain = 0
KST1 280040Z 15020G26KT 29/19 A2972 RMK A01 T02930187  RH  054%=      5-min Rain = 0
KST1 280045Z 15019G24KT 29/19 A2972 RMK A01 T02930187  RH  054%=      5-min Rain = 0
KST1 280050Z 15020KT 29/18 A2972 RMK A01 T02910184  RH  054%=      5-min Rain = 0
KST1 280055Z 15020G26KT 29/19 A2972 RMK A01 T02890185  RH  055%=      5-min Rain = 0
KST1 280100Z 15022KT 29/19 A2972 RMK A01 T02870185  RH  056%=      5-min Rain = 0
KST1 280105Z 15020KT 29/19 A2972 RMK A01 T02860185  RH  056%=      5-min Rain = 0
KST1 280110Z 15021G29KT 28/18 A2972 RMK A01 T02840183  RH  056%=      5-min Rain = 0
KST1 280115Z 15023G28KT 28/18 A2972 RMK A01 T02830182  RH  056%=      5-min Rain = 0
KST1 280120Z 15021KT 28/18 A2972 RMK A01 T02810184  RH  057%=      5-min Rain = 0
KST1 280125Z 15022KT 28/18 A2972 RMK A01 T02790184  RH  058%=      5-min Rain = 0
KST1 280130Z 15020G25KT 28/19 A2972 RMK A01 T02770185  RH  059%=      5-min Rain = 0
KST1 280135Z 15020G25KT 28/19 A2972 RMK A01 T02760185  RH  059%=      5-min Rain = 0
KST1 280140Z 15021G27KT 28/19 A2972 RMK A01 T02750185  RH  060%=      5-min Rain = 0
KST1 280145Z 15020G25KT 27/19 A2972 RMK A01 T02730185  RH  060%=      5-min Rain = 0
KST1 280150Z 15019G26KT 27/19 A2972 RMK A01 T02710185  RH  061%=      5-min Rain = 0
KST1 280155Z 15020G25KT 27/19 A2972 RMK A01 T02710185  RH  061%=      5-min Rain = 0
KST1 280200Z 15019G24KT 27/19 A2972 RMK A01 T02680185  RH  062%=      5-min Rain = 0
KST1 280205Z 15018G23KT 27/19 A2972 RMK A01 T02670185  RH  062%=      5-min Rain = 0
KST1 280210Z 15018KT 27/19 A2972 RMK A01 T02660185  RH  063%=      5-min Rain = 0
KST1 280215Z 15018KT 27/18 A2972 RMK A01 T02650184  RH  063%=      5-min Rain = 0
KST1 280220Z 15017KT 26/18 A2972 RMK A01 T02630184  RH  064%=      5-min Rain = 0
KST1 280225Z 15017KT 26/18 A2972 RMK A01 T02620184  RH  064%=      5-min Rain = 0
KST1 280230Z 15018G24KT 26/18 A2972 RMK A01 T02620183  RH  063%=      5-min Rain = 0
KST1 280235Z 15018G24KT 26/18 A2972 RMK A01 T02610182  RH  063%=      5-min Rain = 0
KST1 280240Z 15019G24KT 26/18 A2972 RMK A01 T02610181  RH  063%=      5-min Rain = 0
KST1 280245Z 15019KT 26/18 A2972 RMK A01 T02600181  RH  063%=      5-min Rain = 0
KST1 280250Z 15017KT 26/18 A2972 RMK A01 T02590181  RH  064%=      5-min Rain = 0
KST1 280255Z 15018G24KT 26/18 A2972 RMK A01 T02580181  RH  064%=      5-min Rain = 0
KST1 280300Z 15018G25KT 26/18 A2972 RMK A01 T02580181  RH  064%=      5-min Rain = 0
KST1 280305Z 15021G27KT 26/18 A2972 RMK A01 T02590181  RH  064%=      5-min Rain = 0
KST1 280310Z 16022G27KT 26/18 A2972 RMK A01 T02590181  RH  063%=      5-min Rain = 0
KST1 280315Z 15019G26KT 26/18 A2972 RMK A01 T02580181  RH  064%=      5-min Rain = 0
KST1 280320Z 16019KT 26/18 A2972 RMK A01 T02570181  RH  064%=      5-min Rain = 0
KST1 280325Z 15020G25KT 26/18 A2972 RMK A01 T02560180  RH  064%=      5-min Rain = 0
KST1 280330Z 16020KT 26/18 A2972 RMK A01 T02560180  RH  064%=      5-min Rain = 0
KST1 280335Z 16020G25KT 26/18 A2972 RMK A01 T02550179  RH  064%=      5-min Rain = 0
KST1 280340Z 16020G27KT 26/18 A2972 RMK A01 T02550179  RH  064%=      5-min Rain = 0
KST1 280345Z 16019G26KT 25/18 A2972 RMK A01 T02540178  RH  064%=      5-min Rain = 0
KST1 280350Z 16022G27KT 26/18 A2972 RMK A01 T02550176  RH  063%=      5-min Rain = 0
KST1 280355Z 16020G26KT 25/18 A2972 RMK A01 T02540175  RH  063%=      5-min Rain = 0
KST1 280400Z 16021G28KT 25/17 A2972 RMK A01 T02530174  RH  063%=      5-min Rain = 0
KST1 280405Z 16021G29KT 25/17 A2972 RMK A01 T02530173  RH  063%=      5-min Rain = 0
KST1 280410Z 16020G26KT 25/17 A2972 RMK A01 T02520173  RH  063%=      5-min Rain = 0
KST1 280415Z 16019G24KT 25/17 A2973 RMK A01 T02510172  RH  063%=      5-min Rain = 0
KST1 280420Z 17020G25KT 25/17 A2973 RMK A01 T02510171  RH  063%=      5-min Rain = 0
KST1 280425Z 17019G24KT 25/17 A2973 RMK A01 T02510170  RH  062%=      5-min Rain = 0
KST1 280430Z 17020KT 25/17 A2973 RMK A01 T02500169  RH  062%=      5-min Rain = 0
KST1 280435Z 17020G29KT 25/17 A2973 RMK A01 T02510168  RH  061%=      5-min Rain = 0
KST1 280440Z 17020G27KT 25/17 A2973 RMK A01 T02510166  RH  061%=      5-min Rain = 0
KST1 280445Z 17019G24KT 25/17 A2973 RMK A01 T02500166  RH  061%=      5-min Rain = 0
KST1 280450Z 17021G26KT 25/16 A2972 RMK A01 T02490164  RH  061%=      5-min Rain = 0
KST1 280455Z 16019KT 25/16 A2972 RMK A01 T02480164  RH  061%=      5-min Rain = 0

Page generated in 0.0251 seconds.